createdAt,value
2019-03-05T00:00:52.359Z,80.55
2019-03-05T00:01:52.349Z,80.55
2019-03-05T00:02:52.308Z,80.30
2019-03-05T00:03:52.323Z,80.65
2019-03-05T00:04:52.281Z,80.72
2019-03-05T00:05:52.281Z,80.20
2019-03-05T00:06:52.264Z,80.34
2019-03-05T00:07:52.254Z,80.44
2019-03-05T00:08:52.279Z,80.55
2019-03-05T00:09:52.239Z,80.30
2019-03-05T00:10:52.205Z,80.14
2019-03-05T00:11:52.207Z,79.90
2019-03-05T00:12:52.226Z,80.04
2019-03-05T00:13:52.249Z,80.51
2019-03-05T00:14:52.213Z,80.44
2019-03-05T00:15:52.177Z,80.30
2019-03-05T00:16:52.159Z,80.51
2019-03-05T00:17:52.149Z,80.10
2019-03-05T00:18:52.133Z,79.48
2019-03-05T00:19:52.147Z,79.83
2019-03-05T00:20:52.131Z,79.62
2019-03-05T00:21:52.109Z,79.17
2019-03-05T00:22:52.100Z,79.58
2019-03-05T00:23:52.102Z,79.69
2019-03-05T00:24:52.103Z,78.76
2019-03-05T00:25:52.088Z,79.69
2019-03-05T00:26:52.057Z,79.48
2019-03-05T00:27:52.037Z,80.20
2019-03-05T00:28:52.026Z,79.79
2019-03-05T00:29:52.045Z,80.10
2019-03-05T00:30:52.040Z,80.51
2019-03-05T00:31:51.987Z,80.62
2019-03-05T00:32:51.988Z,80.20
2019-03-05T00:33:51.991Z,79.69
2019-03-05T00:34:51.979Z,80.51
2019-03-05T00:35:52.003Z,80.51
2019-03-05T00:36:51.942Z,80.20
2019-03-05T00:37:51.932Z,79.79
2019-03-05T00:38:51.922Z,79.90
2019-03-05T00:39:51.917Z,79.58
2019-03-05T00:40:51.922Z,79.69
2019-03-05T00:41:51.865Z,79.58
2019-03-05T00:42:51.859Z,79.69
2019-03-05T00:43:51.900Z,79.17
2019-03-05T00:44:51.917Z,78.97
2019-03-05T00:45:51.878Z,78.86
2019-03-05T00:46:51.837Z,79.27
2019-03-05T00:47:51.867Z,79.38
2019-03-05T00:48:51.810Z,79.07
2019-03-05T00:49:51.783Z,79.17
2019-03-05T00:50:51.812Z,79.27
2019-03-05T00:51:51.788Z,78.24
2019-03-05T00:52:51.803Z,78.55
2019-03-05T00:53:51.748Z,78.45
2019-03-05T00:54:51.743Z,79.17
2019-03-05T00:55:51.742Z,78.86
2019-03-05T00:56:51.722Z,79.17
2019-03-05T00:57:51.713Z,78.14
2019-03-05T00:58:51.734Z,77.94
2019-03-05T00:59:51.705Z,77.94
2019-03-05T01:00:51.781Z,77.94
2019-03-05T01:01:51.677Z,78.24
2019-03-05T01:02:51.641Z,78.45
2019-03-05T01:03:51.647Z,78.08
2019-03-05T01:04:51.637Z,77.97
2019-03-05T01:05:51.726Z,78.18
2019-03-05T01:06:51.632Z,78.04
2019-03-05T01:07:51.599Z,78.28
2019-03-05T01:08:51.597Z,78.28
2019-03-05T01:09:51.561Z,77.76
2019-03-05T01:10:51.551Z,78.28
2019-03-05T01:11:51.588Z,77.94
2019-03-05T01:12:51.557Z,77.66
2019-03-05T01:13:51.571Z,77.66
2019-03-05T01:14:51.583Z,77.87
2019-03-05T01:15:51.556Z,77.66
2019-03-05T01:16:51.544Z,77.76
2019-03-05T01:17:51.576Z,77.76
2019-03-05T01:18:51.553Z,77.25
2019-03-05T01:19:51.506Z,77.97
2019-03-05T01:20:51.489Z,77.97
2019-03-05T01:21:51.490Z,78.28
2019-03-05T01:22:51.505Z,77.66
2019-03-05T01:23:51.475Z,77.66
2019-03-05T01:24:51.448Z,77.66
2019-03-05T01:25:51.439Z,77.56
2019-03-05T01:26:51.621Z,78.28
2019-03-05T01:27:51.430Z,77.87
2019-03-05T01:28:51.421Z,77.76
2019-03-05T01:29:51.372Z,77.97
2019-03-05T01:30:51.383Z,77.76
2019-03-05T01:31:51.344Z,77.87
2019-03-05T01:32:51.377Z,77.97
2019-03-05T01:33:51.342Z,78.18
2019-03-05T01:34:51.330Z,77.97
2019-03-05T01:35:51.315Z,77.56
2019-03-05T01:36:51.295Z,77.35
2019-03-05T01:37:51.347Z,77.66
2019-03-05T01:38:51.357Z,77.87
2019-03-05T01:39:51.293Z,78.18
2019-03-05T01:40:51.259Z,78.18
2019-03-05T01:41:51.335Z,77.87
2019-03-05T01:42:51.258Z,77.25
2019-03-05T01:43:51.251Z,76.84
2019-03-05T01:44:51.230Z,76.73
2019-03-05T01:45:51.204Z,77.04
2019-03-05T01:46:51.215Z,77.04
2019-03-05T01:47:51.236Z,76.94
2019-03-05T01:48:51.173Z,76.84
2019-03-05T01:49:51.182Z,76.42
2019-03-05T01:50:51.159Z,76.21
2019-03-05T01:51:51.134Z,76.32
2019-03-05T01:52:51.151Z,76.32
2019-03-05T01:53:51.235Z,76.63
2019-03-05T01:54:51.109Z,76.56
2019-03-05T01:55:51.099Z,76.53
2019-03-05T01:56:51.090Z,76.73
2019-03-05T01:57:51.078Z,77.18
2019-03-05T01:58:51.094Z,77.25
2019-03-05T01:59:51.082Z,77.15
2019-03-05T02:00:51.040Z,77.08
2019-03-05T02:01:51.010Z,76.98
2019-03-05T02:02:51.020Z,77.35
2019-03-05T02:03:51.018Z,77.49
2019-03-05T02:04:51.054Z,77.35
2019-03-05T02:05:51.013Z,77.45
2019-03-05T02:06:50.969Z,77.35
2019-03-05T02:07:50.962Z,77.15
2019-03-05T02:08:51.045Z,76.94
2019-03-05T02:09:50.975Z,76.94
2019-03-05T02:10:50.964Z,77.15
2019-03-05T02:11:50.934Z,77.15
2019-03-05T02:12:50.919Z,76.63
2019-03-05T02:13:50.924Z,76.63
2019-03-05T02:14:50.969Z,76.56
2019-03-05T02:15:50.907Z,76.63
2019-03-05T02:16:50.853Z,76.53
2019-03-05T02:17:50.882Z,76.21
2019-03-05T02:18:50.886Z,76.25
2019-03-05T02:19:50.903Z,75.84
2019-03-05T02:20:50.851Z,76.32
2019-03-05T02:21:50.823Z,76.73
2019-03-05T02:22:50.832Z,76.32
2019-03-05T02:23:50.829Z,76.04
2019-03-05T02:24:50.849Z,75.84
2019-03-05T02:25:50.804Z,76.12
2019-03-05T02:26:50.773Z,76.04
2019-03-05T02:27:50.784Z,75.95
2019-03-05T02:28:50.805Z,75.74
2019-03-05T02:29:50.735Z,75.91
2019-03-05T02:30:50.784Z,76.01
2019-03-05T02:31:50.739Z,75.70
2019-03-05T02:32:50.734Z,75.81
2019-03-05T02:33:50.702Z,75.74
2019-03-05T02:34:50.707Z,75.74
2019-03-05T02:35:50.792Z,76.01
2019-03-05T02:36:50.639Z,76.04
2019-03-05T02:37:50.653Z,75.81
2019-03-05T02:38:50.702Z,76.12
2019-03-05T02:39:50.660Z,76.01
2019-03-05T02:40:50.681Z,75.60
2019-03-05T02:41:50.638Z,75.70
2019-03-05T02:42:50.606Z,75.49
2019-03-05T02:43:50.599Z,75.70
2019-03-05T02:44:50.598Z,74.98
2019-03-05T02:45:50.607Z,74.67
2019-03-05T02:46:50.609Z,75.70
2019-03-05T02:47:50.569Z,75.70
2019-03-05T02:48:50.560Z,75.60
2019-03-05T02:49:50.550Z,75.60
2019-03-05T02:50:50.575Z,75.60
2019-03-05T02:51:50.538Z,75.60
2019-03-05T02:52:50.509Z,75.91
2019-03-05T02:53:50.518Z,74.71
2019-03-05T02:54:50.489Z,75.09
2019-03-05T02:55:50.549Z,74.98
2019-03-05T02:56:50.509Z,75.60
2019-03-05T02:57:50.483Z,75.60
2019-03-05T02:58:50.501Z,75.81
2019-03-05T02:59:50.421Z,74.57
2019-03-05T03:00:50.517Z,75.81
2019-03-05T03:01:50.427Z,74.98
2019-03-05T03:02:50.410Z,74.50
2019-03-05T03:03:50.386Z,74.67
2019-03-05T03:04:50.370Z,74.77
2019-03-05T03:05:50.350Z,74.81
2019-03-05T03:06:50.395Z,74.36
2019-03-05T03:07:50.379Z,74.19
2019-03-05T03:08:50.376Z,74.08
2019-03-05T03:09:50.342Z,73.98
2019-03-05T03:10:50.333Z,74.19
2019-03-05T03:11:50.410Z,73.98
2019-03-05T03:12:50.351Z,74.08
2019-03-05T03:13:50.275Z,73.71
2019-03-05T03:14:50.256Z,72.47
2019-03-05T03:15:50.247Z,72.57
2019-03-05T03:16:50.331Z,72.88
2019-03-05T03:17:50.271Z,72.67
2019-03-05T03:18:50.225Z,72.67
2019-03-05T03:19:50.247Z,72.78
2019-03-05T03:20:50.252Z,72.36
2019-03-05T03:21:50.211Z,72.81
2019-03-05T03:22:50.184Z,73.09
2019-03-05T03:23:50.147Z,72.30
2019-03-05T03:24:50.152Z,72.91
2019-03-05T03:25:50.234Z,72.71
2019-03-05T03:26:50.165Z,72.40
2019-03-05T03:27:50.101Z,72.50
2019-03-05T03:28:50.120Z,72.30
2019-03-05T03:29:50.125Z,73.16
2019-03-05T03:32:07.303Z,73.12
2019-03-05T03:33:07.280Z,72.61
2019-03-05T03:34:07.239Z,73.12
2019-03-05T03:35:07.237Z,73.22
2019-03-05T03:36:07.220Z,72.91
2019-03-05T03:37:07.298Z,72.91
2019-03-05T03:38:07.197Z,72.91
2019-03-05T03:39:07.199Z,72.91
2019-03-05T03:40:07.197Z,73.74
2019-03-05T03:41:07.160Z,73.54
2019-03-05T03:42:07.178Z,74.08
2019-03-05T03:43:07.139Z,74.50
2019-03-05T03:44:07.144Z,74.60
2019-03-05T03:45:07.140Z,74.29
2019-03-05T03:46:07.101Z,74.71
2019-03-05T03:47:07.099Z,74.81
2019-03-05T03:48:07.321Z,74.91
2019-03-05T03:49:07.077Z,75.01
2019-03-05T03:50:07.051Z,74.81
2019-03-05T03:51:07.074Z,76.05
2019-03-05T03:52:07.048Z,75.95
2019-03-05T03:53:07.020Z,75.74
2019-03-05T03:54:07.035Z,75.74
2019-03-05T03:55:06.996Z,76.09
2019-03-05T03:56:07.019Z,75.84
2019-03-05T03:57:06.997Z,75.67
2019-03-05T03:58:07.007Z,76.09
2019-03-05T03:59:06.977Z,76.18
2019-03-05T04:00:06.963Z,76.39
2019-03-05T04:01:07.464Z,76.29
2019-03-05T04:02:06.944Z,76.91
2019-03-05T04:03:06.926Z,76.91
2019-03-05T04:04:06.922Z,77.01
2019-03-05T04:05:06.902Z,77.33
2019-03-05T04:06:06.924Z,77.43
2019-03-05T04:07:06.877Z,78.46
2019-03-05T04:08:10.176Z,78.15
2019-03-05T04:09:06.932Z,78.05
2019-03-05T04:10:06.846Z,78.05
2019-03-05T04:11:06.838Z,77.84
2019-03-05T04:12:06.846Z,78.25
2019-03-05T04:13:06.887Z,78.56
2019-03-05T04:14:06.841Z,77.84
2019-03-05T04:15:06.817Z,78.05
2019-03-05T04:16:06.817Z,78.05
2019-03-05T04:17:06.806Z,78.15
2019-03-05T04:18:06.771Z,78.46
2019-03-05T04:19:06.778Z,77.84
2019-03-05T04:20:06.741Z,78.46
2019-03-05T04:21:06.752Z,78.15
2019-03-05T04:22:06.703Z,78.36
2019-03-05T04:23:06.720Z,78.36
2019-03-05T04:24:06.987Z,78.46
2019-03-05T04:25:06.688Z,78.36
2019-03-05T04:26:06.673Z,78.46
2019-03-05T04:27:06.666Z,78.53
2019-03-05T04:28:06.644Z,78.46
2019-03-05T04:29:06.720Z,78.25
2019-03-05T04:30:06.638Z,77.84
2019-03-05T04:31:06.620Z,78.53
2019-03-05T04:32:06.613Z,77.64
2019-03-05T04:33:06.602Z,78.11
2019-03-05T04:34:06.639Z,78.11
2019-03-05T04:35:06.570Z,78.11
2019-03-05T04:36:06.547Z,78.11
2019-03-05T04:37:06.549Z,78.01
2019-03-05T04:38:06.532Z,77.91
2019-03-05T04:39:06.625Z,78.22
2019-03-05T04:40:06.626Z,77.91
2019-03-05T04:41:06.504Z,77.81
2019-03-05T04:42:06.526Z,78.42
2019-03-05T04:43:06.525Z,78.63
2019-03-05T04:44:06.574Z,78.94
2019-03-05T04:45:06.502Z,78.94
2019-03-05T04:46:06.486Z,78.94
2019-03-05T04:47:06.462Z,79.36
2019-03-05T04:48:06.503Z,79.25
2019-03-05T04:49:06.498Z,79.25
2019-03-05T04:50:06.503Z,79.25
2019-03-05T04:51:06.382Z,78.94
2019-03-05T04:52:06.391Z,79.36
2019-03-05T04:53:06.380Z,79.36
2019-03-05T04:54:06.371Z,79.15
2019-03-05T04:55:06.432Z,79.66
2019-03-05T04:56:06.352Z,79.46
2019-03-05T04:57:06.333Z,79.15
2019-03-05T04:58:06.324Z,79.05
2019-03-05T04:59:06.313Z,79.25
2019-03-05T05:00:06.318Z,78.42
2019-03-05T05:01:06.323Z,79.36
2019-03-05T05:02:06.267Z,79.25
2019-03-05T05:03:06.277Z,78.94
2019-03-05T05:04:06.243Z,78.84
2019-03-05T05:05:06.304Z,78.94
2019-03-05T05:06:06.272Z,78.53
2019-03-05T05:07:06.233Z,78.53
2019-03-05T05:08:06.224Z,78.53
2019-03-05T05:09:06.200Z,78.32
2019-03-05T05:10:06.223Z,78.32
2019-03-05T05:11:06.231Z,78.05
2019-03-05T05:12:06.173Z,78.32
2019-03-05T05:13:06.163Z,78.42
2019-03-05T05:14:06.155Z,78.11
2019-03-05T05:15:06.149Z,78.42
2019-03-05T05:16:06.111Z,78.63
2019-03-05T05:17:06.115Z,78.77
2019-03-05T05:18:06.112Z,79.15
2019-03-05T05:19:06.118Z,78.84
2019-03-05T05:20:06.085Z,78.01
2019-03-05T05:21:06.065Z,78.42
2019-03-05T05:22:06.057Z,78.32
2019-03-05T05:23:06.089Z,78.32
2019-03-05T05:24:06.041Z,78.56
2019-03-05T05:25:06.073Z,78.63
2019-03-05T05:26:06.017Z,78.53
2019-03-05T05:27:06.022Z,78.42
2019-03-05T05:28:05.989Z,78.42
2019-03-05T05:29:05.990Z,78.63
2019-03-05T05:30:06.021Z,78.42
2019-03-05T05:31:05.964Z,78.53
2019-03-05T05:32:05.958Z,78.01
2019-03-05T05:33:05.938Z,78.01
2019-03-05T05:34:05.929Z,78.11
2019-03-05T05:35:05.923Z,78.01
2019-03-05T05:36:05.966Z,78.53
2019-03-05T05:37:05.911Z,78.42
2019-03-05T05:38:05.919Z,78.94
2019-03-05T05:39:05.883Z,79.36
2019-03-05T05:40:05.888Z,79.46
2019-03-05T05:41:05.901Z,80.18
2019-03-05T05:42:05.841Z,80.70
2019-03-05T05:43:05.863Z,80.60
2019-03-05T05:44:05.819Z,79.80
2019-03-05T05:45:05.831Z,80.70
2019-03-05T05:46:05.830Z,80.53
2019-03-05T05:47:05.827Z,80.70
2019-03-05T05:48:05.787Z,80.60
2019-03-05T05:49:05.762Z,80.43
2019-03-05T05:50:05.783Z,80.22
2019-03-05T05:51:05.788Z,80.63
2019-03-05T05:52:05.734Z,80.63
2019-03-05T05:53:05.751Z,80.74
2019-03-05T05:54:05.698Z,80.49
2019-03-05T05:55:05.714Z,80.49
2019-03-05T05:56:05.732Z,79.80
2019-03-05T05:57:05.691Z,80.18
2019-03-05T05:58:05.669Z,79.80
2019-03-05T05:59:05.642Z,79.66
2019-03-05T06:00:05.811Z,79.97
2019-03-05T06:01:05.650Z,79.77
2019-03-05T06:02:05.652Z,79.39
2019-03-05T06:03:05.623Z,79.56
2019-03-05T06:04:05.613Z,79.25
2019-03-05T06:05:05.636Z,79.25
2019-03-05T06:06:05.812Z,78.42
2019-03-05T06:07:05.582Z,79.56
2019-03-05T06:08:05.574Z,78.63
2019-03-05T06:09:05.533Z,78.53
2019-03-05T06:10:05.556Z,79.15
2019-03-05T06:11:05.542Z,78.94
2019-03-05T06:12:05.548Z,79.15
2019-03-05T06:13:05.509Z,78.74
2019-03-05T06:14:05.499Z,78.84
2019-03-05T06:15:05.482Z,79.25
2019-03-05T06:16:05.479Z,79.25
2019-03-05T06:17:05.515Z,79.46
2019-03-05T06:18:05.457Z,79.56
2019-03-05T06:19:05.443Z,80.49
2019-03-05T06:20:05.451Z,80.39
2019-03-05T06:21:05.474Z,81.11
2019-03-05T06:22:05.440Z,82.25
2019-03-05T06:23:05.425Z,82.04
2019-03-05T06:24:05.403Z,82.08
2019-03-05T06:25:05.404Z,81.67
2019-03-05T06:26:08.435Z,81.98
2019-03-05T06:27:05.442Z,81.77
2019-03-05T06:28:05.336Z,82.50
2019-03-05T06:29:05.347Z,81.98
2019-03-05T06:30:05.339Z,82.70
2019-03-05T06:31:05.385Z,82.70
2019-03-05T06:32:05.345Z,82.70
2019-03-05T06:33:05.378Z,82.60
2019-03-05T06:34:05.281Z,83.63
2019-03-05T06:35:05.286Z,83.11
2019-03-05T06:36:05.234Z,83.49
2019-03-05T06:37:05.313Z,83.42
2019-03-05T06:38:05.287Z,83.32
2019-03-05T06:39:05.231Z,83.32
2019-03-05T06:40:05.234Z,83.63
2019-03-05T06:41:05.226Z,83.42
2019-03-05T06:42:05.202Z,83.32
2019-03-05T06:43:05.233Z,83.01
2019-03-05T06:44:05.185Z,83.11
2019-03-05T06:45:05.158Z,83.53
2019-03-05T06:46:05.176Z,83.01
2019-03-05T06:47:05.155Z,83.32
2019-03-05T06:48:05.145Z,83.94
2019-03-05T06:49:05.115Z,83.73
2019-03-05T06:50:05.123Z,83.53
2019-03-05T06:51:05.080Z,83.53
2019-03-05T06:52:05.083Z,83.84
2019-03-05T06:53:05.104Z,83.11
2019-03-05T06:54:05.085Z,83.32
2019-03-05T06:55:05.093Z,83.42
2019-03-05T06:56:05.028Z,83.42
2019-03-05T06:57:05.027Z,83.22
2019-03-05T06:58:05.088Z,83.32
2019-03-05T06:59:05.044Z,83.22
2019-03-05T07:00:04.994Z,83.53
2019-03-05T07:01:04.973Z,83.01
2019-03-05T07:02:04.969Z,83.32
2019-03-05T07:03:04.984Z,83.28
2019-03-05T07:04:04.953Z,83.22
2019-03-05T07:05:04.931Z,83.32
2019-03-05T07:06:04.921Z,83.32
2019-03-05T07:07:04.902Z,83.11
2019-03-05T07:08:04.929Z,83.01
2019-03-05T07:09:04.873Z,83.53
2019-03-05T07:10:04.873Z,83.42
2019-03-05T07:11:04.905Z,83.22
2019-03-05T07:12:04.920Z,83.22
2019-03-05T07:13:04.876Z,83.42
2019-03-05T07:14:04.904Z,83.63
2019-03-05T07:15:04.798Z,83.22
2019-03-05T07:16:04.820Z,83.42
2019-03-05T07:17:04.829Z,82.80
2019-03-05T07:18:04.775Z,83.32
2019-03-05T07:19:04.823Z,83.22
2019-03-05T07:20:04.771Z,83.32
2019-03-05T07:21:04.759Z,83.32
2019-03-05T07:22:04.755Z,83.11
2019-03-05T07:23:04.760Z,83.22
2019-03-05T07:24:04.760Z,83.59
2019-03-05T07:25:04.739Z,83.28
2019-03-05T07:26:04.720Z,82.97
2019-03-05T07:27:04.692Z,82.97
2019-03-05T07:28:04.697Z,83.39
2019-03-05T07:29:04.739Z,83.18
2019-03-05T07:30:04.661Z,83.39
2019-03-05T07:31:04.677Z,82.76
2019-03-05T07:32:04.635Z,82.56
2019-03-05T07:33:04.638Z,82.87
2019-03-05T07:34:04.638Z,82.87
2019-03-05T07:35:04.630Z,82.76
2019-03-05T07:36:04.677Z,82.56
2019-03-05T07:37:04.609Z,82.25
2019-03-05T07:38:04.552Z,82.42
2019-03-05T07:39:04.581Z,82.31
2019-03-05T07:40:04.588Z,81.90
2019-03-05T07:41:04.573Z,81.90
2019-03-05T07:42:04.519Z,82.00
2019-03-05T07:43:04.518Z,82.10
2019-03-05T07:44:04.520Z,82.15
2019-03-05T07:45:04.499Z,81.84
2019-03-05T07:46:04.458Z,82.21
2019-03-05T07:47:04.450Z,81.70
2019-03-05T07:48:04.455Z,82.15
2019-03-05T07:49:04.446Z,81.07
2019-03-05T07:50:04.474Z,81.18
2019-03-05T07:51:04.430Z,80.76
2019-03-05T07:52:04.413Z,81.07
2019-03-05T07:53:04.377Z,80.97
2019-03-05T07:54:04.390Z,80.87
2019-03-05T07:55:13.261Z,80.76
2019-03-05T07:56:05.389Z,80.97
2019-03-05T07:57:04.335Z,80.97
2019-03-05T07:58:04.352Z,80.87
2019-03-05T07:59:04.332Z,81.18
2019-03-05T08:00:05.512Z,81.07
2019-03-05T08:01:04.354Z,81.18
2019-03-05T08:02:04.294Z,81.07
2019-03-05T08:03:04.297Z,81.14
2019-03-05T08:04:04.306Z,81.04
2019-03-05T08:05:04.305Z,81.04
2019-03-05T08:06:04.366Z,80.93
2019-03-05T08:07:04.280Z,81.04
2019-03-05T08:08:04.228Z,80.52
2019-03-05T08:09:04.219Z,80.42
2019-03-05T08:10:04.260Z,80.48
2019-03-05T08:11:04.269Z,79.86
2019-03-05T08:12:04.203Z,79.25
2019-03-05T08:13:04.214Z,78.83
2019-03-05T08:14:04.194Z,79.28
2019-03-05T08:15:04.164Z,79.25
2019-03-05T08:16:04.217Z,79.76
2019-03-05T08:17:04.163Z,79.35
2019-03-05T08:18:04.125Z,79.25
2019-03-05T08:19:04.131Z,79.66
2019-03-05T08:20:04.109Z,80.18
2019-03-05T08:21:04.155Z,80.18
2019-03-05T08:22:04.080Z,79.76
2019-03-05T08:23:04.079Z,80.18
2019-03-05T08:24:04.221Z,79.97
2019-03-05T08:25:04.050Z,79.55
2019-03-05T08:26:04.083Z,79.49
2019-03-05T08:27:04.007Z,78.94
2019-03-05T08:28:04.011Z,79.76
2019-03-05T08:29:04.002Z,78.83
2019-03-05T08:30:13.746Z,79.66
2019-03-05T08:31:05.021Z,79.04
2019-03-05T08:32:03.960Z,79.76
2019-03-05T08:33:03.953Z,79.76
2019-03-05T08:34:03.930Z,79.76
2019-03-05T08:35:03.984Z,79.97
2019-03-05T08:36:04.031Z,79.45
2019-03-05T08:37:03.976Z,78.83
2019-03-05T08:38:03.895Z,78.83
2019-03-05T08:39:03.879Z,78.83
2019-03-05T08:40:03.862Z,79.18
2019-03-05T08:41:03.853Z,79.14
2019-03-05T08:42:03.865Z,79.25
2019-03-05T08:43:03.858Z,79.49
2019-03-05T08:44:03.870Z,79.59
2019-03-05T08:45:03.871Z,79.14
2019-03-05T08:46:03.812Z,79.28
2019-03-05T08:47:03.833Z,79.14
2019-03-05T08:48:03.793Z,79.49
2019-03-05T08:49:03.807Z,79.49
2019-03-05T08:50:03.778Z,79.28
2019-03-05T08:51:03.774Z,79.59
2019-03-05T08:52:03.902Z,79.28
2019-03-05T08:53:03.725Z,78.87
2019-03-05T08:54:03.727Z,79.69
2019-03-05T08:55:03.716Z,79.59
2019-03-05T08:56:03.727Z,79.69
2019-03-05T08:57:03.718Z,79.80
2019-03-05T08:58:03.724Z,80.42
2019-03-05T08:59:03.668Z,80.07
2019-03-05T09:00:03.668Z,79.66
2019-03-05T09:01:03.645Z,79.76
2019-03-05T09:02:03.666Z,79.66
2019-03-05T09:03:03.664Z,79.21
2019-03-05T09:04:03.700Z,79.11
2019-03-05T09:05:03.611Z,78.69
2019-03-05T09:06:03.635Z,78.80
2019-03-05T09:07:03.611Z,79.11
2019-03-05T09:08:03.575Z,78.80
2019-03-05T09:09:03.585Z,79.07
2019-03-05T09:10:03.587Z,78.66
2019-03-05T09:11:03.567Z,78.66
2019-03-05T09:12:03.536Z,79.07
2019-03-05T09:13:03.517Z,78.97
2019-03-05T09:14:03.508Z,79.27
2019-03-05T09:15:03.527Z,79.58
2019-03-05T09:16:03.488Z,79.27
2019-03-05T09:17:03.511Z,79.07
2019-03-05T09:18:03.590Z,77.73
2019-03-05T09:19:03.482Z,78.86
2019-03-05T09:20:03.768Z,78.76
2019-03-05T09:21:03.444Z,78.34
2019-03-05T09:22:03.423Z,78.45
2019-03-05T09:23:03.412Z,78.66
2019-03-05T09:24:03.392Z,79.17
2019-03-05T09:25:03.419Z,78.76
2019-03-05T09:26:03.453Z,78.55
2019-03-05T09:27:03.347Z,78.97
2019-03-05T09:28:03.359Z,78.76
2019-03-05T09:29:03.378Z,78.66
2019-03-05T09:30:03.352Z,79.07
2019-03-05T09:31:03.336Z,79.07
2019-03-05T09:32:03.307Z,79.27
2019-03-05T09:33:03.291Z,77.73
2019-03-05T09:34:03.350Z,77.94
2019-03-05T09:35:03.269Z,78.04
2019-03-05T09:36:03.289Z,78.66
2019-03-05T09:37:03.248Z,78.86
2019-03-05T09:38:03.257Z,78.24
2019-03-05T09:39:03.392Z,78.34
2019-03-05T09:40:03.267Z,78.34
2019-03-05T09:41:03.212Z,78.24
2019-03-05T09:42:03.215Z,77.83
2019-03-05T09:43:03.204Z,77.73
2019-03-05T09:44:03.267Z,78.14
2019-03-05T09:45:03.173Z,77.31
2019-03-05T09:46:03.156Z,78.24
2019-03-05T09:47:03.147Z,77.90
2019-03-05T09:48:03.148Z,77.94
2019-03-05T09:49:03.190Z,77.80
2019-03-05T09:50:03.139Z,78.34
2019-03-05T09:51:03.112Z,77.52
2019-03-05T09:52:03.142Z,77.01
2019-03-05T09:53:03.116Z,76.70
2019-03-05T09:54:03.094Z,77.11
2019-03-05T09:55:03.186Z,76.90
2019-03-05T09:56:03.092Z,76.80
2019-03-05T09:57:03.106Z,76.18
2019-03-05T09:58:08.064Z,76.39
2019-03-05T09:59:04.045Z,76.59
2019-03-05T10:00:03.038Z,76.39
2019-03-05T10:01:03.084Z,76.80
2019-03-05T10:02:02.997Z,77.31
2019-03-05T10:03:02.993Z,77.11
2019-03-05T10:04:02.970Z,77.22
2019-03-05T10:05:02.983Z,76.80
2019-03-05T10:06:02.958Z,77.11
2019-03-05T10:07:02.960Z,78.04
2019-03-05T10:08:02.922Z,78.14
2019-03-05T10:09:02.910Z,77.42
2019-03-05T10:10:02.925Z,77.11
2019-03-05T10:11:02.894Z,77.11
2019-03-05T10:12:02.897Z,77.94
2019-03-05T10:13:04.456Z,77.62
2019-03-05T10:14:02.886Z,78.04
2019-03-05T10:15:02.879Z,78.24
2019-03-05T10:16:02.832Z,78.04
2019-03-05T10:17:02.828Z,76.29
2019-03-05T10:18:12.382Z,76.80
2019-03-05T10:19:04.525Z,76.90
2019-03-05T10:20:02.851Z,77.22
2019-03-05T10:21:02.839Z,76.76
2019-03-05T10:22:02.767Z,76.46
2019-03-05T10:23:02.751Z,76.76
2019-03-05T10:24:10.456Z,77.18
2019-03-05T10:25:06.303Z,76.11
2019-03-05T10:26:02.770Z,76.04
2019-03-05T10:27:02.686Z,75.90
2019-03-05T10:28:02.685Z,76.04
2019-03-05T10:29:02.706Z,76.04
2019-03-05T10:30:02.683Z,76.04
2019-03-05T10:31:02.711Z,76.46
2019-03-05T10:32:02.704Z,75.94
2019-03-05T10:33:02.666Z,75.84
2019-03-05T10:34:02.654Z,76.46
2019-03-05T10:35:02.679Z,76.15
2019-03-05T10:36:02.709Z,75.90
2019-03-05T10:37:12.332Z,76.11
2019-03-05T10:38:03.561Z,75.70
2019-03-05T10:39:02.592Z,75.73
2019-03-05T10:40:02.618Z,75.70
2019-03-05T10:41:02.618Z,75.73
2019-03-05T10:42:02.590Z,75.43
2019-03-05T10:43:08.547Z,75.53
2019-03-05T10:44:03.525Z,75.84
2019-03-05T10:45:02.535Z,74.91
2019-03-05T10:46:02.543Z,75.63
2019-03-05T10:47:02.484Z,75.43
2019-03-05T10:48:02.476Z,75.43
2019-03-05T10:49:02.475Z,76.11
2019-03-05T10:50:02.450Z,75.49
2019-03-05T10:51:02.484Z,75.81
2019-03-05T10:52:02.425Z,75.70
2019-03-05T10:53:02.453Z,74.57
2019-03-05T10:54:02.419Z,73.91
2019-03-05T10:55:02.387Z,73.91
2019-03-05T10:56:02.425Z,73.81
2019-03-05T10:57:02.415Z,73.71
2019-03-05T10:58:02.469Z,73.91
2019-03-05T10:59:02.328Z,73.88
2019-03-05T11:00:02.354Z,73.40
2019-03-05T11:01:02.321Z,73.98
2019-03-05T11:02:02.375Z,73.57
2019-03-05T11:03:02.398Z,73.26
2019-03-05T11:04:02.335Z,73.78
2019-03-05T11:05:02.290Z,74.19
2019-03-05T11:06:02.299Z,72.51
2019-03-05T11:07:02.282Z,73.23
2019-03-05T11:08:02.246Z,72.20
2019-03-05T11:09:02.247Z,72.09
2019-03-05T11:10:02.258Z,72.20
2019-03-05T11:11:12.727Z,72.09
2019-03-05T11:12:03.204Z,71.66
2019-03-05T11:13:02.201Z,71.66
2019-03-05T11:14:02.214Z,71.86
2019-03-05T11:15:02.208Z,71.96
2019-03-05T11:16:02.191Z,71.45
2019-03-05T11:17:02.128Z,70.11
2019-03-05T11:18:02.131Z,70.01
2019-03-05T11:19:02.103Z,70.21
2019-03-05T11:20:02.112Z,70.42
2019-03-05T11:21:02.112Z,70.62
2019-03-05T11:22:02.180Z,70.42
2019-03-05T11:23:02.074Z,70.21
2019-03-05T11:24:02.061Z,70.73
2019-03-05T11:25:02.076Z,70.42
2019-03-05T11:26:02.071Z,69.80
2019-03-05T11:27:02.071Z,69.09
2019-03-05T11:28:02.029Z,69.05
2019-03-05T11:29:02.020Z,69.05
2019-03-05T11:30:02.068Z,69.39
2019-03-05T11:31:02.023Z,69.98
2019-03-05T11:32:02.020Z,69.60
2019-03-05T11:33:01.978Z,69.26
2019-03-05T11:34:01.986Z,69.15
2019-03-05T11:35:02.079Z,69.36
2019-03-05T11:36:01.937Z,67.30
2019-03-05T11:37:01.923Z,67.38
2019-03-05T11:38:01.920Z,67.89
2019-03-05T11:39:01.952Z,67.27
2019-03-05T11:40:01.918Z,67.38
2019-03-05T11:41:01.945Z,66.35
2019-03-05T11:42:01.877Z,65.83
2019-03-05T11:43:01.925Z,66.25
2019-03-05T11:44:01.884Z,66.14
2019-03-05T11:45:07.516Z,66.25
2019-03-05T11:46:02.826Z,66.25
2019-03-05T11:47:01.819Z,65.94
2019-03-05T11:48:01.803Z,65.80
2019-03-05T11:49:01.813Z,66.04
2019-03-05T11:50:01.799Z,65.42
2019-03-05T11:51:01.756Z,65.53
2019-03-05T11:52:01.763Z,65.01
2019-03-05T11:53:01.772Z,64.70
2019-03-05T11:54:01.779Z,65.22
2019-03-05T11:55:01.755Z,65.42
2019-03-05T11:56:01.717Z,65.83
2019-03-05T11:57:01.832Z,64.73
2019-03-05T11:58:01.704Z,66.07
2019-03-05T11:59:01.738Z,65.56
2019-03-05T12:00:01.669Z,65.77
2019-03-05T12:01:01.661Z,65.97
2019-03-05T12:02:01.648Z,66.17
2019-03-05T12:03:01.649Z,65.97
2019-03-05T12:04:01.679Z,65.66
2019-03-05T12:05:01.613Z,65.66
2019-03-05T12:06:01.603Z,65.97
2019-03-05T12:07:01.591Z,65.77
2019-03-05T12:08:01.586Z,65.45
2019-03-05T12:09:01.797Z,65.25
2019-03-05T12:10:01.596Z,65.42
2019-03-05T12:11:01.544Z,65.42
2019-03-05T12:12:01.566Z,65.94
2019-03-05T12:13:01.573Z,65.94
2019-03-05T12:14:01.516Z,65.53
2019-03-05T12:15:01.590Z,65.42
2019-03-05T12:16:01.521Z,65.50
2019-03-05T12:17:01.465Z,64.78
2019-03-05T12:18:01.470Z,65.42
2019-03-05T12:19:01.500Z,65.29
2019-03-05T12:20:01.468Z,65.39
2019-03-05T12:21:01.683Z,65.19
2019-03-05T12:22:01.456Z,64.88
2019-03-05T12:23:02.394Z,64.47
2019-03-05T12:24:01.412Z,64.06
2019-03-05T12:25:03.342Z,63.65
2019-03-05T12:26:01.385Z,63.72
2019-03-05T12:27:01.410Z,62.59
2019-03-05T12:28:09.694Z,63.00
2019-03-05T12:29:02.347Z,62.70
2019-03-05T12:30:01.351Z,61.98
2019-03-05T12:31:01.338Z,61.67
2019-03-05T12:32:01.388Z,62.08
2019-03-05T12:33:01.291Z,62.29
2019-03-05T12:34:01.348Z,62.70
2019-03-05T12:35:01.280Z,61.87
2019-03-05T12:36:01.275Z,61.67
2019-03-05T12:37:01.280Z,61.46
2019-03-05T12:38:01.283Z,62.39
2019-03-05T12:39:01.218Z,62.70
2019-03-05T12:40:01.321Z,62.39
2019-03-05T12:41:01.207Z,62.08
2019-03-05T12:42:03.555Z,61.67
2019-03-05T12:43:01.209Z,62.08
2019-03-05T12:44:01.198Z,61.46
2019-03-05T12:45:01.230Z,61.77
2019-03-05T12:46:01.175Z,61.57
2019-03-05T12:47:01.163Z,61.46
2019-03-05T12:48:01.155Z,62.08
2019-03-05T12:49:01.136Z,62.08
2019-03-05T12:50:01.160Z,62.29
2019-03-05T12:51:01.101Z,62.08
2019-03-05T12:52:01.120Z,62.31
2019-03-05T12:53:01.089Z,63.13
2019-03-05T12:54:01.129Z,62.90